Latest Weather Observations for Narrabri

IDN60801

Issued at 10:42 am EST Saturday 24 August 2019 (issued every 10 minutes, with the page automatically refreshed every 10 minutes)

About weather observations | Map of weather stations | Latest weather observations for NSW | Other Formats
Station Details ID: 054038 Name: NARRABRI AIRPORT AWS Lat: -30.32 Lon: 149.83 Height: 229.02 m
Data from the previous 72 hours. | See also: Recent months at Narrabri
Date/Time
EST
Temp
°C
App
Temp
°C
Dew
Point
°C
Rel
Hum
%
Delta-T
°C
Wind Press
QNH
hPa
Press
MSL
hPa
Rain since
9am
mm
Dir  Spd
km/h
Gust
km/h
Spd
kts
Gust
kts
24/10:30am 19.8 11.1 4.3 36 7.5 N 39 50 21 27 1023.6 1023.7 0.0
24/10:00am 18.8 10.5 4.2 38 7.0 N 37 52 20 28 1023.7 1023.8 0.0
24/09:30am 18.3 9.6 4.1 39 6.8 N 39 48 21 26 1023.9 1024.0 0.0
24/09:00am 17.0 8.6 3.7 41 6.2 N 37 48 20 26 1024.0 1024.1 0.0
24/08:30am 16.2 7.5 3.9 44 5.8 N 39 50 21 27 1024.1 1024.2 0.0
24/08:00am 15.4 6.7 4.2 47 5.2 N 39 52 21 28 1023.9 1024.0 0.0
24/07:30am 15.0 7.3 3.5 46 5.3 NNE 33 43 18 23 1023.7 1023.8 0.0
24/07:00am 13.5 7.0 2.7 48 4.8 NNE 26 32 14 17 1023.4 1023.5 0.0
24/06:30am 13.0 6.9 2.8 50 4.6 NNE 24 33 13 18 1023.2 1023.3 0.0
24/06:13am 9.7 6.5 4.9 72 2.2 N 11 24 6 13 1023.3 1023.4 0.0
24/06:00am 3.2 0.3 -3.8 60 2.4 NNW 2 9 1 5 1023.4 1023.5 0.0
24/05:30am 3.1 -0.3 -5.0 55 2.7 S 4 7 2 4 1023.3 1023.4 0.0
24/05:00am 3.4 -0.5 -4.5 56 2.6 E 7 11 4 6 1023.2 1023.3 0.0
24/04:30am 3.4 0.8 -5.3 53 2.9 CALM 0 0 0 0 1023.0 1023.0 0.0
24/04:00am 3.9 0.2 -4.5 54 2.8 SSW 6 11 3 6 1023.0 1023.0 0.0
24/03:30am 4.9 1.0 -4.9 49 3.3 NE 7 7 4 4 1022.9 1022.9 0.0
24/03:00am 5.4 2.8 -4.7 48 3.5 CALM 0 0 0 0 1022.7 1022.7 0.0
24/02:30am 6.0 3.5 -4.2 48 3.6 CALM 0 6 0 3 1022.8 1022.8 0.0
24/02:00am 4.9 2.3 -4.9 49 3.3 CALM 0 0 0 0 1023.0 1023.0 0.0
24/01:30am 5.7 3.2 -4.4 48 3.5 CALM 0 2 0 1 1023.0 1023.0 0.0
24/01:00am 6.1 3.5 -4.6 46 3.7 CALM 0 0 0 0 1023.1 1023.2 0.0
24/12:30am 6.3 2.4 -4.2 47 3.7 NE 7 11 4 6 1023.2 1023.3 0.0
24/12:00am 6.5 3.6 -4.0 47 3.7 SSE 2 6 1 3 1023.2 1023.3 0.0
 
Date/Time
EST
Temp
°C
App
Temp
°C
Dew
Point
°C
Rel
Hum
%
Delta-T
°C
Wind Press
QNH
hPa
Press
MSL
hPa
Rain since
9am
mm
Dir  Spd
km/h
Gust
km/h
Spd
kts
Gust
kts
23/11:30pm 5.8 2.1 -4.6 47 3.6 SE 6 9 3 5 1023.2 1023.3 0.0
23/11:00pm 6.7 3.4 -4.7 44 4.0 S 4 7 2 4 1023.1 1023.2 0.0
23/10:30pm 6.7 3.0 -5.0 43 4.1 NW 6 11 3 6 1023.5 1023.6 0.0
23/10:00pm 7.4 4.8 -5.0 41 4.3 CALM 0 0 0 0 1023.5 1023.6 0.0
23/09:30pm 8.2 4.4 -5.3 38 4.7 ENE 6 9 3 5 1023.7 1023.8 0.0
23/09:00pm 9.8 5.5 -5.3 34 5.4 S 9 9 5 5 1023.7 1023.8 0.0
23/08:30pm 14.0 9.7 -4.7 27 7.1 SSE 9 15 5 8 1023.9 1024.0 0.0
23/08:00pm 15.5 10.2 -3.4 27 7.5 SE 15 22 8 12 1023.7 1023.8 0.0
23/07:30pm 15.7 10.1 -3.2 27 7.6 SE 17 20 9 11 1023.6 1023.7 0.0
23/07:00pm 16.1 10.4 -3.4 26 7.8 SE 17 20 9 11 1023.5 1023.6 0.0
23/06:30pm 16.7 11.4 -3.9 24 8.2 SE 15 19 8 10 1023.2 1023.3 0.0
23/06:00pm 17.4 13.1 -5.1 21 8.8 SE 9 11 5 6 1023.0 1023.0 0.0
23/05:30pm 19.2 14.5 -5.0 19 9.7 SSE 11 15 6 8 1022.9 1022.9 0.0
23/05:00pm 20.6 16.3 -4.5 18 10.3 SSW 9 13 5 7 1022.5 1022.5 0.0
23/04:30pm 21.3 17.4 -4.7 17 10.7 SW 7 11 4 6 1022.5 1022.5 0.0
23/04:00pm 21.7 18.0 -4.4 17 10.8 SW 6 9 3 5 1022.5 1022.5 0.0
23/03:30pm 21.7 17.4 -4.4 17 10.9 SW 9 17 5 9 1022.4 1022.4 0.0
23/03:00pm 20.9 15.5 -4.3 18 10.4 SW 15 20 8 11 1022.5 1022.5 0.0
23/02:30pm 21.4 17.5 -4.6 17 10.7 SSW 7 13 4 7 1022.5 1022.5 0.0
23/02:00pm 20.9 16.4 -3.6 19 10.2 SSW 11 20 6 11 1022.7 1022.7 0.0
23/01:30pm 20.7 15.7 -4.4 18 10.3 WSW 13 20 7 11 1022.9 1022.9 0.0
23/01:00pm 20.5 15.8 -5.4 17 10.4 SSE 11 15 6 8 1023.3 1023.4 0.0
23/12:30pm 19.9 16.7 -3.7 20 9.8 W 4 9 2 5 1023.9 1024.0 0.0
23/12:00pm 19.3 14.8 -2.9 22 9.3 S 11 20 6 11 1024.6 1024.7 0.0
23/11:30am 18.8 14.8 -2.2 24 8.9 SSE 9 15 5 8 1025.2 1025.3 0.0
23/11:00am 17.8 13.1 -1.9 26 8.3 S 13 26 7 14 1025.7 1025.7 0.0
23/10:30am 16.6 11.6 -1.0 30 7.5 SE 15 22 8 12 1026.0 1026.0 0.0
23/10:00am 15.4 10.1 -0.4 34 6.7 SE 17 28 9 15 1026.1 1026.1 0.0
23/09:30am 14.2 8.4 0.1 38 6.0 SE 20 30 11 16 1026.1 1026.1 0.0
23/09:00am 13.2 8.0 0.3 41 5.4 SE 17 24 9 13 1026.1 1026.1 0.0
23/08:30am 11.3 5.7 1.0 49 4.3 SE 20 28 11 15 1025.9 1025.9 0.0
23/08:00am 9.6 4.2 1.0 55 3.5 SSE 19 28 10 15 1025.7 1025.7 0.0
23/07:30am 8.1 2.4 0.8 60 3.0 SSE 20 28 11 15 1025.1 1025.2 0.0
23/07:00am 7.2 1.5 0.6 63 2.6 SSE 20 30 11 16 1024.6 1024.7 0.0
23/06:30am 7.1 1.1 0.8 64 2.5 SSE 22 32 12 17 1024.1 1024.2 0.0
23/06:00am 7.4 1.0 0.8 63 2.7 SSE 24 33 13 18 1023.4 1023.5 0.0
23/05:30am 7.5 1.0 0.5 61 2.8 SSE 24 33 13 18 1022.9 1022.9 0.0
23/05:00am 8.0 1.9 0.3 58 3.1 SSE 22 33 12 18 1022.2 1022.2 0.0
23/04:30am 7.9 2.1 -0.1 57 3.2 SSE 20 28 11 15 1021.9 1021.9 0.0
23/04:00am 7.3 2.4 -0.4 58 3.0 SSE 15 22 8 12 1021.9 1021.9 0.0
23/03:30am 4.7 0.9 -0.9 67 2.1 SSE 9 11 5 6 1022.0 1022.0 0.0
23/03:00am 3.9 1.7 -1.9 66 2.1 CALM 0 6 0 3 1021.7 1021.7 0.0
23/02:30am 3.9 0.8 -2.3 64 2.2 SE 4 7 2 4 1021.8 1021.8 0.0
23/02:00am 4.1 1.8 -2.5 62 2.4 CALM 0 4 0 2 1021.7 1021.7 0.0
23/01:30am 4.9 1.5 -2.0 61 2.5 SSE 6 9 3 5 1021.7 1021.7 0.0
23/01:00am 6.4 3.5 -0.8 60 2.8 SW 4 9 2 5 1021.6 1021.6 0.0
23/12:30am 5.5 3.3 -1.6 60 2.6 CALM 0 0 0 0 1021.9 1021.9 0.0
23/12:00am 6.3 4.1 -1.3 58 2.9 CALM 0 0 0 0 1021.7 1021.7 0.0
 
Date/Time
EST
Temp
°C
App
Temp
°C
Dew
Point
°C
Rel
Hum
%
Delta-T
°C
Wind Press
QNH
hPa
Press
MSL
hPa
Rain since
9am
mm
Dir  Spd
km/h
Gust
km/h
Spd
kts
Gust
kts
22/11:30pm 7.3 5.2 -0.6 57 3.1 CALM 0 0 0 0 1021.6 1021.6 0.0
22/11:00pm 7.8 5.8 -0.4 56 3.2 CALM 0 0 0 0 1021.5 1021.5 0.0
22/10:30pm 8.1 6.1 -0.4 55 3.4 CALM 0 4 0 2 1021.8 1021.8 0.0
22/10:00pm 9.1 7.1 -0.2 52 3.7 CALM 0 0 0 0 1021.9 1021.9 0.0
22/09:30pm 10.6 7.0 0.3 49 4.3 SSW 9 11 5 6 1021.6 1021.6 0.0
22/09:00pm 11.6 8.0 0.4 46 4.7 SSW 9 11 5 6 1021.5 1021.5 0.0
22/08:30pm 13.0 8.2 0.4 42 5.3 SSW 15 19 8 10 1021.3 1021.3 0.0
22/08:00pm 13.4 9.4 0.8 42 5.4 SSW 11 19 6 10 1021.0 1021.0 0.0
22/07:30pm 14.2 9.9 0.8 40 5.8 SSW 13 17 7 9 1020.5 1020.6 0.0
22/07:00pm 15.2 10.1 0.6 37 6.3 SW 17 20 9 11 1020.0 1020.1 0.0
22/06:30pm 15.7 10.2 0.7 36 6.6 SW 19 24 10 13 1019.6 1019.7 0.0
22/06:00pm 16.4 10.3 0.5 34 6.9 SW 22 28 12 15 1019.1 1019.1 0.0
22/05:30pm 16.9 10.1 1.0 34 7.1 SW 26 35 14 19 1018.4 1018.4 0.0
22/05:00pm 17.6 11.2 0.7 32 7.5 SW 24 33 13 18 1018.2 1018.2 0.0
22/04:30pm 18.2 11.0 0.8 31 7.8 SW 28 37 15 20 1017.8 1017.8 0.0
22/04:00pm 18.7 10.6 1.2 31 7.9 SW 33 44 18 24 1017.5 1017.5 0.0
22/03:30pm 18.5 10.5 1.5 32 7.7 SW 33 46 18 25 1017.5 1017.5 0.0
22/03:00pm 18.8 10.9 2.2 33 7.7 SW 33 46 18 25 1017.4 1017.4 0.0
22/02:30pm 19.1 9.6 2.0 32 7.9 WSW 41 54 22 29 1017.3 1017.3 0.0
22/02:00pm 19.1 10.0 2.0 32 7.9 SW 39 52 21 28 1017.4 1017.4 0.0
22/01:46pm 19.6 10.6 2.5 32 8.0 WSW 39 52 21 28 1017.2 1017.2 0.0
22/01:32pm 19.0 9.9 2.0 32 7.8 WSW 39 50 21 27 1017.3 1017.3 0.0
22/01:30pm 19.4 10.7 1.9 31 8.1 WSW 37 50 20 27 1017.4 1017.4 0.0
22/01:00pm 19.7 12.4 2.6 32 8.0 WSW 30 41 16 22 1017.6 1017.6 0.0
22/12:30pm 18.5 12.4 2.8 35 7.3 SW 24 37 13 20 1018.0 1018.0 0.0
22/12:00pm 18.4 12.4 3.5 37 7.0 WSW 24 35 13 19 1018.8 1018.8 0.0
22/11:30am 17.1 10.9 2.3 37 6.8 SW 24 35 13 19 1019.4 1019.5 0.0
22/11:00am 17.2 9.4 1.6 35 7.0 SW 32 41 17 22 1019.9 1020.0 0.0
22/10:30am 17.2 9.5 2.4 37 6.8 WSW 32 39 17 21 1020.0 1020.1 0.0
22/10:00am 16.2 10.1 2.9 41 6.1 SW 24 37 13 20 1020.3 1020.4 0.0
22/09:30am 15.3 9.5 4.4 48 5.1 WSW 24 33 13 18 1020.5 1020.6 0.0
22/09:00am 14.5 8.7 4.2 50 4.8 WSW 24 32 13 17 1020.5 1020.6 0.0
22/08:30am 13.6 7.4 4.5 54 4.2 SW 26 33 14 18 1020.5 1020.6 0.0
22/08:00am 12.8 7.9 4.0 55 4.0 WSW 19 26 10 14 1020.6 1020.7 0.0
22/07:30am 10.8 8.0 3.1 59 3.4 WSW 7 11 4 6 1020.5 1020.6 0.0
22/07:00am 8.6 4.8 1.5 61 2.9 W 11 13 6 7 1020.2 1020.3 0.0
22/06:30am 8.7 5.2 1.1 59 3.1 WSW 9 11 5 6 1020.3 1020.4 0.0
22/06:00am 9.1 5.7 1.8 60 3.1 W 9 11 5 6 1019.8 1019.9 0.0
22/05:30am 9.7 6.0 2.3 60 3.2 NW 11 15 6 8 1019.4 1019.5 0.0
22/05:00am 10.3 8.7 2.7 59 3.3 CALM 0 6 0 3 1019.6 1019.7 0.0
22/04:30am 10.1 8.5 2.2 58 3.4 CALM 0 0 0 0 1019.7 1019.8 0.0
22/04:00am 10.2 8.3 2.8 60 3.2 SW 2 13 1 7 1019.5 1019.6 0.0
22/03:30am 9.3 7.7 2.2 61 3.0 CALM 0 0 0 0 1019.7 1019.8 0.0
22/03:00am 10.0 8.4 2.4 59 3.3 CALM 0 0 0 0 1019.8 1019.9 0.0
22/02:30am 10.7 9.1 2.3 56 3.6 CALM 0 0 0 0 1020.6 1020.7 0.0
22/02:00am 11.1 9.5 2.4 55 3.8 CALM 0 0 0 0 1020.9 1020.9 0.0
22/01:30am 11.5 8.3 2.8 55 3.8 S 9 9 5 5 1021.0 1021.0 0.0
22/01:00am 11.2 8.3 2.8 56 3.7 S 7 9 4 5 1021.4 1021.4 0.0
22/12:30am 10.7 7.4 2.5 57 3.6 SSW 9 11 5 6 1021.6 1021.6 0.0
22/12:00am 10.5 6.8 2.1 56 3.6 SW 11 11 6 6 1021.7 1021.7 0.0
 
Date/Time
EST
Temp
°C
App
Temp
°C
Dew
Point
°C
Rel
Hum
%
Delta-T
°C
Wind Press
QNH
hPa
Press
MSL
hPa
Rain since
9am
mm
Dir  Spd
km/h
Gust
km/h
Spd
kts
Gust
kts
21/11:30pm 12.1 8.4 2.6 52 4.2 SW 11 13 6 7 1021.6 1021.6 0.0
21/11:00pm 13.0 9.0 2.8 50 4.5 SW 13 17 7 9 1021.8 1021.8 0.0
21/10:30pm 11.9 8.9 2.1 51 4.3 SW 7 9 4 5 1021.9 1021.9 0.0
21/10:00pm 13.0 9.3 2.6 49 4.6 SW 11 13 6 7 1022.0 1022.0 0.0
21/09:30pm 13.1 7.4 2.6 49 4.7 SW 22 24 12 13 1021.9 1021.9 0.0
21/09:00pm 13.1 7.6 2.1 47 4.8 SW 20 22 11 12 1021.8 1021.8 0.0
21/08:30pm 13.4 8.9 2.0 46 5.0 SSW 15 19 8 10 1021.7 1021.7 0.0
21/08:00pm 13.3 9.0 1.3 44 5.2 SW 13 15 7 8 1021.6 1021.6 0.0
21/07:30pm 14.3 9.3 1.2 41 5.7 SW 17 20 9 11 1021.3 1021.3 0.0
21/07:00pm 14.2 10.3 1.2 41 5.6 SW 11 13 6 7 1021.3 1021.3 0.0
21/06:30pm 14.9 10.6 1.1 39 6.0 WSW 13 15 7 8 1021.2 1021.2 0.0
21/06:00pm 15.9 11.2 0.9 36 6.6 WSW 15 20 8 11 1020.6 1020.7 0.0
21/05:30pm 17.3 11.7 0.9 33 7.3 WSW 20 26 11 14 1020.2 1020.3 0.0
21/05:00pm 18.3 11.1 0.9 31 7.8 WSW 28 37 15 20 1020.2 1020.3 0.0
21/04:30pm 18.9 11.7 1.0 30 8.1 WSW 28 39 15 21 1020.2 1020.3 0.0
21/04:00pm 19.3 12.6 1.3 30 8.2 WSW 26 35 14 19 1020.1 1020.2 0.0
21/03:30pm 19.2 12.1 1.2 30 8.2 WSW 28 37 15 20 1020.4 1020.5 0.0
21/03:00pm 19.2 12.1 1.2 30 8.2 SW 28 39 15 21 1020.5 1020.6 0.0
21/02:30pm 19.5 12.7 1.0 29 8.4 SW 26 35 14 19 1020.5 1020.6 0.0
21/02:00pm 19.1 12.7 0.7 29 8.3 WSW 24 37 13 20 1020.5 1020.6 0.0
21/01:30pm 18.9 12.4 0.5 29 8.2 WSW 24 35 13 19 1021.0 1021.0 0.0
21/01:00pm 18.6 13.6 1.2 31 7.8 WSW 17 32 9 17 1021.3 1021.3 0.0
21/12:30pm 17.7 14.7 1.7 34 7.3 WSW 7 19 4 10 1022.0 1022.0 0.0
21/12:00pm 17.2 13.3 1.2 34 7.1 WSW 11 24 6 13 1022.8 1022.8 0.0
21/11:30am 15.8 11.9 1.2 37 6.5 SW 11 19 6 10 1023.4 1023.5 0.0
21/11:00am 15.7 12.2 1.1 37 6.4 WNW 9 13 5 7 1023.9 1024.0 0.0

Other formats

Comma delimited format used in spreadsheet applications
http://www.bom.gov.au/fwo/IDN60801/IDN60801.95734.axf

JavaScript Object Notation format (JSON) in row-major order
http://www.bom.gov.au/fwo/IDN60801/IDN60801.95734.json

Data quality

Most of these data are generated automatically and are frequently updated. Quality checks on data are not normally performed. It is possible for incorrect values to appear. Refer to information at About Latest Weather Observations and please check the disclaimer before using these data.